createdAt,value
2022-12-08T00:00:11.239Z,18.10
2022-12-08T00:02:38.191Z,19.98
2022-12-08T00:05:23.980Z,18.40
2022-12-08T00:08:09.515Z,17.58
2022-12-08T00:10:51.796Z,19.33
2022-12-08T00:13:18.718Z,17.50
2022-12-08T00:15:45.574Z,19.38
2022-12-08T00:18:12.455Z,17.15
2022-12-08T00:20:39.292Z,18.02
2022-12-08T00:23:06.177Z,17.20
2022-12-08T00:25:36.318Z,27.10
2022-12-08T00:28:03.298Z,30.73
2022-12-08T00:30:30.090Z,26.10
2022-12-08T00:32:56.909Z,24.60
2022-12-08T00:35:23.843Z,20.75
2022-12-08T00:37:50.669Z,19.77
2022-12-08T00:40:17.542Z,20.15
2022-12-08T00:42:44.386Z,18.50
2022-12-08T00:45:11.714Z,17.50
2022-12-08T00:47:38.724Z,16.05
2022-12-08T00:50:06.763Z,15.00
2022-12-08T00:52:33.718Z,18.02
2022-12-08T00:55:00.600Z,19.10
2022-12-08T00:57:27.518Z,18.02
2022-12-08T00:59:54.314Z,21.20
2022-12-08T01:02:21.196Z,19.17
2022-12-08T01:04:47.986Z,17.10
2022-12-08T01:07:14.924Z,19.13
2022-12-08T01:09:41.822Z,24.67
2022-12-08T01:12:09.337Z,19.70
2022-12-08T01:14:37.189Z,18.17
2022-12-08T01:17:04.154Z,19.42
2022-12-08T01:19:31.113Z,16.98
2022-12-08T01:21:57.909Z,15.77
2022-12-08T01:24:24.723Z,14.55
2022-12-08T01:26:52.113Z,17.00
2022-12-08T01:29:19.284Z,14.45
2022-12-08T01:31:46.327Z,15.82
2022-12-08T01:34:13.314Z,15.80
2022-12-08T01:36:41.040Z,19.17
2022-12-08T01:39:13.612Z,13.27
2022-12-08T01:41:40.473Z,15.13
2022-12-08T01:44:08.372Z,17.33
2022-12-08T01:46:42.981Z,16.52
2022-12-08T01:49:12.627Z,15.50
2022-12-08T01:51:51.934Z,15.05
2022-12-08T01:54:21.161Z,18.67
2022-12-08T01:57:10.226Z,16.58
2022-12-08T01:59:41.802Z,18.77
2022-12-08T02:02:10.522Z,16.88
2022-12-08T02:04:37.680Z,17.13
2022-12-08T02:07:08.120Z,16.02
2022-12-08T02:09:36.660Z,15.35
2022-12-08T02:12:03.930Z,17.73
2022-12-08T02:14:30.882Z,14.07
2022-12-08T02:17:33.014Z,14.00
2022-12-08T02:20:05.745Z,12.57
2022-12-08T02:22:40.998Z,14.57
2022-12-08T02:25:07.758Z,13.40
2022-12-08T02:28:18.556Z,16.40
2022-12-08T02:31:05.221Z,17.15
2022-12-08T02:33:50.628Z,15.90
2022-12-08T02:36:46.273Z,17.70
2022-12-08T02:39:25.914Z,15.80
2022-12-08T02:42:06.219Z,18.10
2022-12-08T02:44:45.914Z,15.02
2022-12-08T02:47:18.230Z,14.52
2022-12-08T02:49:45.522Z,17.77
2022-12-08T02:52:12.337Z,13.68
2022-12-08T02:54:46.586Z,18.48
2022-12-08T02:57:16.193Z,17.42
2022-12-08T03:00:02.802Z,16.65
2022-12-08T03:02:36.166Z,16.55
2022-12-08T03:05:29.373Z,17.30
2022-12-08T03:08:19.744Z,15.20
2022-12-08T03:10:48.773Z,15.50
2022-12-08T03:13:40.255Z,15.35
2022-12-08T03:16:09.631Z,12.52
2022-12-08T03:18:42.304Z,14.75
2022-12-08T03:21:13.362Z,14.95
2022-12-08T03:23:41.761Z,14.70
2022-12-08T03:26:36.411Z,14.05
2022-12-08T03:31:34.894Z,13.15
2022-12-08T03:34:05.159Z,14.18
2022-12-08T03:36:32.639Z,13.85
2022-12-08T03:39:00.519Z,15.15
2022-12-08T03:41:27.373Z,13.20
2022-12-08T03:43:57.412Z,14.98
2022-12-08T03:48:52.370Z,14.32
2022-12-08T03:51:19.711Z,13.20
2022-12-08T03:53:47.030Z,13.95
2022-12-08T03:56:25.762Z,13.25
2022-12-08T03:58:53.738Z,14.85
2022-12-08T04:01:21.064Z,12.73
2022-12-08T04:03:48.405Z,12.32
2022-12-08T04:06:15.713Z,12.68
2022-12-08T04:08:42.596Z,14.07
2022-12-08T04:11:10.076Z,13.75
2022-12-08T04:13:39.305Z,12.85
2022-12-08T04:16:06.824Z,12.13
2022-12-08T04:18:35.152Z,13.63
2022-12-08T04:21:02.287Z,12.88
2022-12-08T04:23:29.141Z,12.80
2022-12-08T04:25:55.936Z,12.68
2022-12-08T04:28:22.995Z,11.48
2022-12-08T04:30:50.179Z,12.13
2022-12-08T04:33:17.280Z,15.52
2022-12-08T04:35:44.305Z,13.65
2022-12-08T04:38:11.401Z,16.45
2022-12-08T04:40:38.562Z,14.18
2022-12-08T04:43:05.663Z,14.27
2022-12-08T04:45:33.029Z,11.75
2022-12-08T04:48:01.079Z,12.73
2022-12-08T04:50:28.473Z,15.13
2022-12-08T04:52:55.299Z,13.82
2022-12-08T04:55:22.285Z,13.13
2022-12-08T04:57:49.182Z,15.05
2022-12-08T05:00:16.678Z,16.13
2022-12-08T05:02:43.578Z,11.45
2022-12-08T05:05:10.767Z,12.80
2022-12-08T05:07:37.823Z,12.40
2022-12-08T05:10:05.626Z,12.75
2022-12-08T05:12:33.164Z,11.82
2022-12-08T05:14:59.993Z,11.48
2022-12-08T05:17:26.817Z,12.85
2022-12-08T05:19:53.763Z,15.40
2022-12-08T05:22:20.533Z,14.32
2022-12-08T05:24:47.956Z,12.85
2022-12-08T05:27:15.043Z,13.57
2022-12-08T05:29:42.578Z,12.65
2022-12-08T05:32:09.563Z,15.57
2022-12-08T05:34:36.469Z,13.40
2022-12-08T05:37:03.381Z,16.95
2022-12-08T05:39:30.190Z,13.80
2022-12-08T05:41:56.954Z,12.63
2022-12-08T05:44:23.798Z,15.30
2022-12-08T05:46:50.662Z,12.10
2022-12-08T05:49:17.539Z,12.23
2022-12-08T05:51:44.746Z,13.23
2022-12-08T05:54:11.574Z,12.77
2022-12-08T05:56:38.437Z,11.65
2022-12-08T05:59:08.771Z,12.25
2022-12-08T06:01:35.788Z,10.38
2022-12-08T06:04:04.054Z,13.13
2022-12-08T06:06:32.156Z,11.60
2022-12-08T06:08:59.201Z,12.45
2022-12-08T06:11:30.993Z,10.68
2022-12-08T06:13:58.878Z,14.18
2022-12-08T06:16:27.284Z,13.05
2022-12-08T06:18:55.169Z,14.32
2022-12-08T06:21:22.227Z,12.73
2022-12-08T06:23:51.160Z,14.25
2022-12-08T06:26:18.421Z,12.15
2022-12-08T06:28:45.453Z,13.57
2022-12-08T06:31:17.268Z,12.88
2022-12-08T06:33:44.921Z,11.45
2022-12-08T06:36:17.247Z,13.00
2022-12-08T06:38:44.609Z,12.02
2022-12-08T06:41:12.651Z,12.20
2022-12-08T06:43:39.895Z,12.70
2022-12-08T06:46:09.366Z,12.68
2022-12-08T06:48:36.320Z,14.95
2022-12-08T06:51:12.282Z,11.30
2022-12-08T06:53:39.418Z,11.77
2022-12-08T06:56:06.896Z,13.30
2022-12-08T06:58:34.324Z,10.88
2022-12-08T07:01:08.777Z,11.73
2022-12-08T07:03:37.034Z,12.18
2022-12-08T07:06:04.880Z,12.07
2022-12-08T07:08:33.359Z,12.43
2022-12-08T07:11:00.240Z,12.52
2022-12-08T07:13:27.113Z,14.30
2022-12-08T07:15:53.974Z,12.45
2022-12-08T07:18:20.770Z,11.50
2022-12-08T07:20:47.673Z,11.40
2022-12-08T07:23:14.542Z,11.30
2022-12-08T07:25:41.441Z,15.18
2022-12-08T07:28:09.732Z,11.68
2022-12-08T07:30:36.688Z,11.80
2022-12-08T07:33:05.828Z,11.18
2022-12-08T07:35:34.858Z,13.00
2022-12-08T07:38:02.424Z,12.73
2022-12-08T07:40:29.469Z,14.68
2022-12-08T07:42:56.415Z,12.40
2022-12-08T07:45:31.128Z,12.55
2022-12-08T07:47:58.520Z,11.88
2022-12-08T07:50:25.367Z,16.20
2022-12-08T07:52:52.165Z,13.55
2022-12-08T07:55:19.022Z,13.38
2022-12-08T07:57:45.865Z,14.90
2022-12-08T08:00:13.370Z,12.63
2022-12-08T08:02:40.445Z,14.27
2022-12-08T08:05:08.017Z,12.88
2022-12-08T08:07:35.375Z,12.50
2022-12-08T08:10:02.359Z,12.13
2022-12-08T08:12:32.057Z,12.05
2022-12-08T08:15:00.981Z,14.15
2022-12-08T08:17:29.497Z,18.67
2022-12-08T08:19:57.278Z,15.63
2022-12-08T08:22:25.837Z,12.50
2022-12-08T08:24:53.403Z,16.20
2022-12-08T08:27:20.788Z,13.68
2022-12-08T08:29:47.624Z,14.00
2022-12-08T08:32:14.479Z,13.02
2022-12-08T08:34:41.302Z,14.63
2022-12-08T08:37:08.277Z,12.48
2022-12-08T08:39:35.393Z,11.82
2022-12-08T08:42:02.459Z,14.35
2022-12-08T08:44:29.446Z,12.98
2022-12-08T08:46:56.329Z,17.08
2022-12-08T08:49:23.235Z,13.20
2022-12-08T08:51:50.259Z,14.95
2022-12-08T08:54:17.101Z,12.90
2022-12-08T08:56:43.955Z,14.38
2022-12-08T08:59:11.365Z,13.70
2022-12-08T09:01:38.300Z,13.32
2022-12-08T09:04:05.263Z,15.90
2022-12-08T09:06:32.283Z,16.27
2022-12-08T09:08:59.225Z,15.40
2022-12-08T09:11:26.109Z,15.38
2022-12-08T09:13:54.432Z,15.93
2022-12-08T09:16:22.427Z,14.43
2022-12-08T09:18:49.625Z,16.05
2022-12-08T09:21:23.155Z,14.50
2022-12-08T09:23:51.217Z,14.60
2022-12-08T09:26:18.098Z,15.93
2022-12-08T09:28:46.760Z,15.07
2022-12-08T09:31:14.511Z,14.55
2022-12-08T09:33:41.903Z,12.65
2022-12-08T09:36:09.622Z,13.27
2022-12-08T09:38:37.187Z,14.07
2022-12-08T09:41:14.171Z,15.15
2022-12-08T09:43:52.777Z,14.63
2022-12-08T09:46:20.956Z,14.27
2022-12-08T09:48:56.041Z,17.05
2022-12-08T09:51:38.839Z,16.42
2022-12-08T09:54:35.725Z,19.52
2022-12-08T09:57:11.088Z,16.83
2022-12-08T09:59:38.079Z,17.60
2022-12-08T10:02:21.073Z,15.57
2022-12-08T10:04:48.171Z,18.02
2022-12-08T10:07:26.717Z,22.55
2022-12-08T10:10:03.485Z,20.10
2022-12-08T10:13:08.301Z,22.42
2022-12-08T10:16:02.074Z,22.75
2022-12-08T10:18:31.914Z,20.67
2022-12-08T10:21:20.556Z,20.55
2022-12-08T10:23:58.608Z,19.23
2022-12-08T10:26:25.401Z,19.25
2022-12-08T10:28:52.357Z,19.42
2022-12-08T10:31:22.749Z,21.42
2022-12-08T10:34:19.857Z,20.00
2022-12-08T10:36:49.525Z,19.38
2022-12-08T10:39:31.705Z,23.33
2022-12-08T10:42:02.738Z,20.98
2022-12-08T10:44:29.956Z,20.27
2022-12-08T10:46:58.081Z,20.20
2022-12-08T10:49:29.136Z,18.13
2022-12-08T10:51:56.015Z,16.83
2022-12-08T10:54:52.967Z,17.58
2022-12-08T10:57:25.361Z,18.55
2022-12-08T10:59:55.907Z,18.73
2022-12-08T11:02:23.382Z,18.08
2022-12-08T11:04:59.526Z,19.17
2022-12-08T11:07:27.371Z,17.45
2022-12-08T11:09:58.300Z,22.20
2022-12-08T11:12:29.475Z,18.60
2022-12-08T11:15:03.058Z,19.65
2022-12-08T11:17:39.369Z,18.33
2022-12-08T11:20:09.573Z,18.88
2022-12-08T11:23:01.940Z,17.55
2022-12-08T11:25:28.856Z,20.00
2022-12-08T11:28:00.566Z,20.60
2022-12-08T11:30:43.321Z,20.77
2022-12-08T11:33:21.040Z,17.58
2022-12-08T11:36:13.362Z,18.70
2022-12-08T11:38:45.565Z,22.42
2022-12-08T11:41:17.092Z,22.45
2022-12-08T11:44:08.416Z,20.75
2022-12-08T11:46:51.080Z,21.80
2022-12-08T11:49:18.937Z,23.25
2022-12-08T11:52:02.245Z,19.98
2022-12-08T11:54:32.606Z,20.58
2022-12-08T11:57:05.926Z,22.98
2022-12-08T11:59:53.499Z,18.95
2022-12-08T12:02:27.118Z,17.10
2022-12-08T12:05:02.501Z,20.55
2022-12-08T12:07:41.445Z,17.38
2022-12-08T12:10:23.521Z,18.83
2022-12-08T12:13:09.239Z,18.52
2022-12-08T12:15:54.870Z,22.35
2022-12-08T12:18:40.432Z,21.13
2022-12-08T12:21:26.373Z,21.15
2022-12-08T12:24:03.711Z,19.60
2022-12-08T12:26:38.013Z,18.63
2022-12-08T12:29:11.123Z,21.63
2022-12-08T12:31:42.541Z,21.50
2022-12-08T12:34:44.909Z,20.48
2022-12-08T12:37:15.162Z,20.88
2022-12-08T12:40:03.530Z,21.65
2022-12-08T12:42:49.242Z,21.70
2022-12-08T12:45:20.056Z,23.25
2022-12-08T12:47:57.825Z,21.40
2022-12-08T12:50:33.708Z,22.55
2022-12-08T12:53:02.772Z,20.15
2022-12-08T12:55:58.535Z,21.90
2022-12-08T12:58:28.437Z,22.98
2022-12-08T13:01:13.443Z,23.40
2022-12-08T13:03:48.082Z,23.00
2022-12-08T13:06:22.425Z,21.35
2022-12-08T13:08:55.086Z,19.80
2022-12-08T13:11:23.516Z,21.65
2022-12-08T13:14:03.489Z,18.70
2022-12-08T13:16:39.471Z,19.92
2022-12-08T13:19:15.871Z,17.10
2022-12-08T13:21:42.878Z,18.00
2022-12-08T13:24:19.938Z,15.82
2022-12-08T13:26:52.287Z,14.70
2022-12-08T13:29:19.127Z,18.25
2022-12-08T13:31:57.266Z,15.60
2022-12-08T13:34:35.805Z,16.83
2022-12-08T13:37:11.512Z,14.27
2022-12-08T13:39:52.487Z,14.05
2022-12-08T13:42:31.173Z,13.02
2022-12-08T13:46:12.150Z,15.85
2022-12-08T13:48:26.603Z,17.33
2022-12-08T13:57:10.560Z,17.35
2022-12-08T13:59:35.467Z,15.25
2022-12-08T14:02:20.621Z,15.23
2022-12-08T14:05:17.384Z,15.52
2022-12-08T14:07:35.118Z,17.02
2022-12-08T14:10:03.871Z,14.57
2022-12-08T14:12:31.671Z,20.73
2022-12-08T14:15:12.014Z,17.65
2022-12-08T14:17:39.801Z,18.42
2022-12-08T14:20:12.613Z,17.45
2022-12-08T14:22:41.259Z,17.08
2022-12-08T14:25:14.552Z,19.23
2022-12-08T14:27:41.818Z,15.88
2022-12-08T14:30:14.701Z,16.83
2022-12-08T14:32:56.215Z,18.20
2022-12-08T14:35:23.018Z,16.92
2022-12-08T14:37:52.838Z,18.52
2022-12-08T14:40:23.032Z,15.98
2022-12-08T14:43:13.635Z,14.95
2022-12-08T14:45:43.298Z,17.35
2022-12-08T14:48:31.054Z,16.85
2022-12-08T14:51:04.125Z,15.98
2022-12-08T14:53:47.824Z,14.68
2022-12-08T14:56:20.544Z,18.10
2022-12-08T14:59:03.156Z,15.80
2022-12-08T15:01:30.473Z,15.75
2022-12-08T15:04:11.944Z,15.05
2022-12-08T15:06:49.885Z,16.33
2022-12-08T15:09:37.012Z,19.25
2022-12-08T15:12:13.968Z,17.08
2022-12-08T15:15:17.753Z,16.30
2022-12-08T15:17:57.805Z,17.13
2022-12-08T15:20:44.160Z,14.32
2022-12-08T15:23:47.517Z,14.35
2022-12-08T15:26:22.233Z,14.57
2022-12-08T15:28:49.158Z,13.80
2022-12-08T15:31:17.816Z,14.38
2022-12-08T15:33:44.854Z,16.30
2022-12-08T15:36:12.368Z,14.82
2022-12-08T15:38:39.400Z,16.50
2022-12-08T15:41:10.144Z,14.95
2022-12-08T15:43:39.965Z,12.75
2022-12-08T15:46:06.887Z,15.40
2022-12-08T15:48:33.678Z,17.05
2022-12-08T15:51:00.702Z,18.90
2022-12-08T15:53:27.931Z,15.43
2022-12-08T15:56:26.198Z,17.67
2022-12-08T15:58:56.387Z,16.23
2022-12-08T16:01:24.728Z,18.25
2022-12-08T16:09:53.008Z,17.10
2022-12-08T16:18:24.950Z,15.65
2022-12-08T16:21:10.363Z,16.25
2022-12-08T16:23:43.535Z,16.85
2022-12-08T16:29:19.464Z,18.65
2022-12-08T16:31:46.466Z,37.40
2022-12-08T16:34:13.322Z,29.25
2022-12-08T16:36:40.176Z,19.92
2022-12-08T16:39:07.318Z,19.48
2022-12-08T16:41:52.533Z,17.02
2022-12-08T16:44:19.369Z,19.55
2022-12-08T16:46:46.240Z,16.77
2022-12-08T16:49:15.558Z,19.48
2022-12-08T16:51:43.828Z,17.48
2022-12-08T16:54:10.931Z,22.95
2022-12-08T16:56:37.888Z,18.80
2022-12-08T16:59:04.762Z,18.38
2022-12-08T17:01:32.057Z,20.10
2022-12-08T17:06:46.189Z,19.45
2022-12-08T17:09:13.235Z,18.45
2022-12-08T17:11:43.380Z,20.90
2022-12-08T17:14:14.730Z,21.42
2022-12-08T17:16:42.346Z,20.60
2022-12-08T17:19:09.622Z,21.33
2022-12-08T17:21:36.503Z,18.83
2022-12-08T17:24:03.590Z,22.40
2022-12-08T17:26:31.750Z,18.38
2022-12-08T17:29:01.198Z,18.90
2022-12-08T17:31:30.626Z,22.20
2022-12-08T17:34:10.180Z,25.08
2022-12-08T17:36:37.165Z,25.17
2022-12-08T17:39:05.481Z,23.50
2022-12-08T17:41:32.322Z,22.90
2022-12-08T17:43:59.164Z,25.83
2022-12-08T17:46:26.638Z,25.20
2022-12-08T17:48:53.688Z,23.23
2022-12-08T17:51:20.813Z,23.90
2022-12-08T17:53:47.702Z,23.27
2022-12-08T17:56:20.848Z,23.92
2022-12-08T17:58:52.845Z,24.10
2022-12-08T18:01:21.630Z,24.73
2022-12-08T18:03:48.579Z,25.10
2022-12-08T18:06:17.663Z,24.15
2022-12-08T18:08:45.134Z,25.67
2022-12-08T18:11:19.438Z,21.85
2022-12-08T18:13:47.753Z,23.17
2022-12-08T18:16:15.608Z,25.63
2022-12-08T18:18:42.942Z,30.58
2022-12-08T18:21:10.021Z,23.77
2022-12-08T18:23:41.458Z,24.77
2022-12-08T18:26:09.901Z,22.45
2022-12-08T18:28:37.720Z,21.77
2022-12-08T18:31:14.529Z,21.67
2022-12-08T18:33:43.237Z,25.65
2022-12-08T18:36:12.645Z,21.80
2022-12-08T18:38:40.081Z,24.63
2022-12-08T18:41:09.487Z,22.15
2022-12-08T18:43:37.163Z,23.70
2022-12-08T18:46:07.865Z,23.10
2022-12-08T18:48:39.350Z,34.22
2022-12-08T18:51:22.794Z,37.95
2022-12-08T18:53:50.317Z,37.20
2022-12-08T18:56:27.322Z,27.13
2022-12-08T18:59:02.854Z,24.50
2022-12-08T19:01:32.188Z,27.17
2022-12-08T19:06:47.271Z,25.23
2022-12-08T19:09:14.255Z,24.98
2022-12-08T19:11:41.371Z,27.58
2022-12-08T19:14:09.229Z,24.25
2022-12-08T19:16:36.782Z,25.35
2022-12-08T19:19:04.793Z,23.90
2022-12-08T19:21:32.492Z,24.80
2022-12-08T19:24:00.026Z,25.55
2022-12-08T19:26:28.229Z,26.05
2022-12-08T19:28:55.464Z,24.00
2022-12-08T19:31:22.372Z,24.48
2022-12-08T19:33:49.326Z,24.25
2022-12-08T19:36:18.737Z,25.15
2022-12-08T19:39:04.384Z,25.05
2022-12-08T19:41:50.057Z,26.45
2022-12-08T19:44:36.945Z,21.95
2022-12-08T19:47:04.760Z,24.42
2022-12-08T19:49:32.401Z,27.15
2022-12-08T19:51:59.433Z,27.20
2022-12-08T19:54:27.005Z,28.13
2022-12-08T19:56:53.893Z,28.05
2022-12-08T19:59:20.811Z,30.17
2022-12-08T20:01:48.516Z,28.08
2022-12-08T20:04:16.533Z,26.67
2022-12-08T20:06:44.529Z,25.08
2022-12-08T20:09:12.864Z,26.50
2022-12-08T20:11:39.880Z,25.85
2022-12-08T20:14:07.370Z,27.08
2022-12-08T20:16:34.607Z,31.23
2022-12-08T20:19:02.184Z,26.48
2022-12-08T20:21:29.374Z,26.95
2022-12-08T20:23:56.351Z,27.45
2022-12-08T20:26:24.092Z,26.08
2022-12-08T20:28:51.294Z,27.85
2022-12-08T20:31:26.748Z,23.70
2022-12-08T20:33:53.846Z,24.83
2022-12-08T20:36:22.245Z,23.77
2022-12-08T20:38:51.597Z,27.08
2022-12-08T20:41:19.790Z,26.65
2022-12-08T20:43:47.851Z,27.75
2022-12-08T20:46:17.159Z,26.20
2022-12-08T20:48:44.726Z,25.65
2022-12-08T20:51:19.496Z,25.60
2022-12-08T20:53:47.619Z,26.17
2022-12-08T20:56:16.734Z,26.00
2022-12-08T20:58:43.788Z,27.95
2022-12-08T21:01:13.031Z,26.20
2022-12-08T21:03:40.939Z,24.88
2022-12-08T21:06:08.402Z,26.05
2022-12-08T21:08:35.985Z,24.50
2022-12-08T21:11:03.883Z,25.15
2022-12-08T21:13:30.811Z,24.23
2022-12-08T21:15:58.047Z,24.50
2022-12-08T21:18:25.378Z,24.45
2022-12-08T21:20:53.200Z,27.17
2022-12-08T21:23:20.846Z,26.60
2022-12-08T21:25:47.735Z,26.63
2022-12-08T21:28:15.372Z,26.40
2022-12-08T21:30:43.481Z,27.33
2022-12-08T21:33:10.633Z,27.67
2022-12-08T21:35:37.937Z,27.00
2022-12-08T21:38:06.541Z,29.15
2022-12-08T21:40:35.237Z,25.35
2022-12-08T21:43:03.830Z,27.38
2022-12-08T21:45:31.438Z,28.42
2022-12-08T21:47:59.519Z,27.42
2022-12-08T21:50:27.652Z,28.77
2022-12-08T21:52:54.786Z,26.67
2022-12-08T21:55:23.827Z,26.55
2022-12-08T21:57:50.827Z,26.20
2022-12-08T22:00:18.541Z,29.45
2022-12-08T22:02:46.223Z,28.40
2022-12-08T22:05:13.379Z,26.60
2022-12-08T22:07:41.242Z,29.38
2022-12-08T22:10:10.392Z,28.80
2022-12-08T22:12:38.200Z,31.15
2022-12-08T22:15:10.169Z,26.75
2022-12-08T22:17:39.814Z,29.90
2022-12-08T22:20:09.231Z,26.15
2022-12-08T22:22:36.925Z,28.25
2022-12-08T22:25:05.185Z,28.23
2022-12-08T22:27:34.171Z,30.27
2022-12-08T22:30:01.582Z,29.27
2022-12-08T22:32:28.660Z,31.25
2022-12-08T22:34:55.761Z,29.65
2022-12-08T22:37:22.659Z,27.75
2022-12-08T22:39:49.707Z,29.02
2022-12-08T22:42:16.653Z,28.13
2022-12-08T22:44:43.505Z,30.88
2022-12-08T22:47:10.382Z,26.67
2022-12-08T22:49:37.288Z,30.35
2022-12-08T22:52:04.359Z,31.98
2022-12-08T22:54:31.597Z,30.35
2022-12-08T22:56:58.415Z,28.67
2022-12-08T22:59:25.380Z,27.60
2022-12-08T23:01:53.958Z,30.42
2022-12-08T23:04:21.284Z,25.13
2022-12-08T23:06:48.326Z,29.13
2022-12-08T23:09:15.408Z,27.20
2022-12-08T23:11:43.119Z,25.05
2022-12-08T23:14:09.997Z,27.00
2022-12-08T23:16:36.982Z,27.33
2022-12-08T23:19:04.200Z,28.80
2022-12-08T23:21:31.273Z,26.73
2022-12-08T23:24:00.964Z,27.63
2022-12-08T23:26:30.159Z,25.67
2022-12-08T23:28:58.188Z,27.02
2022-12-08T23:31:25.590Z,28.08
2022-12-08T23:33:53.534Z,26.83
2022-12-08T23:36:22.721Z,27.63
2022-12-08T23:38:49.653Z,27.50
2022-12-08T23:41:17.331Z,27.63
2022-12-08T23:43:49.996Z,25.92
2022-12-08T23:46:19.719Z,29.63
2022-12-08T23:48:46.931Z,24.65
2022-12-08T23:51:14.023Z,27.10
2022-12-08T23:53:41.115Z,26.23
2022-12-08T23:56:11.835Z,26.52
2022-12-08T23:58:39.586Z,25.58
